createdAt,value
2023-05-15T00:01:05.933Z,22.63
2023-05-15T00:03:33.823Z,26.88
2023-05-15T00:06:01.839Z,26.85
2023-05-15T00:08:29.618Z,28.60
2023-05-15T00:11:01.553Z,28.08
2023-05-15T00:13:31.425Z,27.17
2023-05-15T00:15:59.222Z,29.50
2023-05-15T00:18:27.396Z,26.25
2023-05-15T00:20:55.359Z,27.13
2023-05-15T00:23:23.148Z,25.83
2023-05-15T00:25:50.922Z,24.23
2023-05-15T00:28:18.697Z,26.58
2023-05-15T00:30:47.766Z,29.00
2023-05-15T00:33:15.606Z,28.13
2023-05-15T00:35:44.002Z,26.83
2023-05-15T00:38:12.875Z,26.13
2023-05-15T00:40:42.430Z,25.70
2023-05-15T00:43:12.031Z,25.05
2023-05-15T00:45:41.962Z,24.55
2023-05-15T00:48:12.094Z,23.63
2023-05-15T00:50:41.906Z,22.70
2023-05-15T00:53:09.832Z,23.80
2023-05-15T00:55:39.205Z,27.63
2023-05-15T00:58:07.970Z,23.48
2023-05-15T01:00:36.116Z,27.35
2023-05-15T01:03:06.194Z,26.83
2023-05-15T01:05:36.098Z,30.33
2023-05-15T01:08:14.117Z,22.40
2023-05-15T01:10:43.863Z,25.25
2023-05-15T01:13:12.690Z,22.35
2023-05-15T01:15:40.463Z,25.60
2023-05-15T01:18:08.903Z,22.98
2023-05-15T01:20:51.158Z,23.27
2023-05-15T01:23:24.768Z,23.80
2023-05-15T01:26:31.671Z,24.77
2023-05-15T01:29:05.892Z,29.57
2023-05-15T01:31:38.183Z,25.40
2023-05-15T01:34:10.475Z,25.73
2023-05-15T01:36:43.926Z,26.67
2023-05-15T01:39:12.803Z,26.80
2023-05-15T01:41:46.566Z,26.67
2023-05-15T01:44:20.918Z,26.17
2023-05-15T01:46:53.045Z,24.38
2023-05-15T01:49:27.298Z,23.10
2023-05-15T01:52:00.987Z,27.25
2023-05-15T01:54:30.816Z,24.73
2023-05-15T01:56:59.966Z,25.55
2023-05-15T01:59:30.571Z,30.77
2023-05-15T02:01:59.031Z,25.08
2023-05-15T02:04:27.450Z,27.15
2023-05-15T02:06:56.772Z,28.27
2023-05-15T02:09:25.765Z,26.33
2023-05-15T02:11:53.988Z,27.63
2023-05-15T02:14:22.220Z,19.90
2023-05-15T02:16:51.486Z,20.95
2023-05-15T02:19:19.297Z,19.07
2023-05-15T02:21:47.142Z,18.15
2023-05-15T02:24:14.854Z,17.40
2023-05-15T02:26:49.915Z,17.30
2023-05-15T02:29:21.430Z,19.83
2023-05-15T02:31:57.884Z,18.00
2023-05-15T02:34:34.055Z,17.05
2023-05-15T02:37:04.125Z,23.00
2023-05-15T02:39:34.429Z,19.55
2023-05-15T02:42:03.061Z,20.65
2023-05-15T02:44:32.206Z,24.07
2023-05-15T02:47:01.649Z,20.38
2023-05-15T02:49:29.401Z,20.90
2023-05-15T02:51:57.181Z,20.33
2023-05-15T02:54:25.085Z,20.25
2023-05-15T02:56:52.813Z,19.33
2023-05-15T02:59:20.641Z,23.75
2023-05-15T03:01:48.923Z,22.25
2023-05-15T03:04:18.306Z,21.20
2023-05-15T03:06:46.304Z,22.73
2023-05-15T03:09:14.058Z,20.43
2023-05-15T03:11:41.847Z,23.83
2023-05-15T03:14:09.623Z,18.95
2023-05-15T03:16:38.931Z,18.70
2023-05-15T03:19:06.945Z,22.40
2023-05-15T03:21:36.370Z,19.83
2023-05-15T03:24:04.229Z,22.40
2023-05-15T03:26:31.901Z,20.90
2023-05-15T03:28:59.677Z,19.42
2023-05-15T03:31:27.617Z,20.95
2023-05-15T03:33:55.543Z,26.30
2023-05-15T03:36:23.520Z,26.55
2023-05-15T03:38:52.627Z,29.50
2023-05-15T03:41:21.315Z,30.45
2023-05-15T03:43:49.195Z,30.55
2023-05-15T03:46:20.192Z,28.27
2023-05-15T03:48:48.082Z,27.15
2023-05-15T03:51:15.916Z,25.05
2023-05-15T03:53:43.735Z,28.08
2023-05-15T03:56:12.976Z,28.00
2023-05-15T03:58:40.669Z,18.77
2023-05-15T04:01:08.432Z,18.92
2023-05-15T04:03:36.173Z,17.55
2023-05-15T04:06:03.970Z,20.08
2023-05-15T04:08:31.702Z,19.48
2023-05-15T04:10:59.481Z,21.13
2023-05-15T04:13:28.611Z,25.13
2023-05-15T04:15:57.215Z,23.17
2023-05-15T04:18:25.040Z,21.08
2023-05-15T04:20:53.526Z,20.38
2023-05-15T04:23:21.228Z,20.93
2023-05-15T04:25:49.011Z,22.58
2023-05-15T04:28:17.180Z,19.77
2023-05-15T04:30:46.423Z,19.73
2023-05-15T04:33:14.197Z,20.42
2023-05-15T04:35:41.999Z,17.87
2023-05-15T04:38:09.741Z,22.00
2023-05-15T04:40:37.490Z,23.15
2023-05-15T04:43:05.909Z,19.40
2023-05-15T04:45:33.713Z,19.10
2023-05-15T04:48:02.874Z,14.93
2023-05-15T04:50:30.871Z,17.52
2023-05-15T04:52:58.655Z,17.05
2023-05-15T04:55:26.614Z,20.40
2023-05-15T04:57:54.400Z,18.60
2023-05-15T05:00:22.170Z,21.97
2023-05-15T05:02:50.030Z,22.75
2023-05-15T05:05:19.258Z,20.25
2023-05-15T05:07:46.920Z,24.83
2023-05-15T05:10:15.157Z,24.58
2023-05-15T05:12:43.210Z,23.30
2023-05-15T05:15:11.819Z,26.63
2023-05-15T05:17:39.845Z,23.20
2023-05-15T05:20:12.823Z,19.95
2023-05-15T05:22:42.751Z,20.42
2023-05-15T05:25:11.028Z,23.50
2023-05-15T05:27:38.914Z,21.55
2023-05-15T05:30:08.522Z,19.08
2023-05-15T05:32:36.296Z,21.08
2023-05-15T05:35:04.427Z,23.25
2023-05-15T05:37:32.515Z,23.33
2023-05-15T05:40:01.708Z,24.38
2023-05-15T05:42:29.494Z,24.67
2023-05-15T05:44:57.470Z,22.67
2023-05-15T05:47:25.224Z,22.30
2023-05-15T05:49:53.816Z,24.63
2023-05-15T05:52:21.613Z,25.92
2023-05-15T05:54:49.361Z,23.35
2023-05-15T05:57:18.577Z,22.98
2023-05-15T05:59:46.813Z,23.50
2023-05-15T06:02:14.620Z,21.63
2023-05-15T06:04:42.390Z,23.35
2023-05-15T06:07:10.427Z,27.15
2023-05-15T06:09:38.289Z,24.02
2023-05-15T06:12:08.296Z,26.33
2023-05-15T06:14:37.431Z,26.57
2023-05-15T06:17:06.342Z,29.67
2023-05-15T06:19:34.282Z,29.48
2023-05-15T06:22:02.121Z,25.52
2023-05-15T06:24:29.842Z,29.65
2023-05-15T06:26:57.740Z,29.43
2023-05-15T06:29:25.625Z,28.42
2023-05-15T06:31:54.789Z,31.08
2023-05-15T06:34:22.604Z,31.02
2023-05-15T06:36:50.378Z,28.88
2023-05-15T06:39:18.055Z,29.97
2023-05-15T06:41:45.886Z,33.60
2023-05-15T06:44:13.922Z,35.08
2023-05-15T06:46:41.727Z,31.67
2023-05-15T06:49:10.856Z,33.30
2023-05-15T06:51:38.612Z,31.47
2023-05-15T06:54:06.310Z,38.10
2023-05-15T06:56:34.075Z,30.00
2023-05-15T06:59:01.841Z,36.42
2023-05-15T07:01:29.639Z,35.65
2023-05-15T07:03:57.389Z,31.90
2023-05-15T07:06:26.576Z,30.48
2023-05-15T07:08:54.341Z,33.88
2023-05-15T07:11:22.142Z,36.20
2023-05-15T07:13:50.766Z,32.92
2023-05-15T07:16:18.611Z,34.37
2023-05-15T07:18:46.535Z,36.08
2023-05-15T07:21:14.329Z,32.53
2023-05-15T07:23:43.392Z,33.88
2023-05-15T07:26:16.959Z,37.95
2023-05-15T07:28:48.035Z,40.43
2023-05-15T07:31:15.888Z,35.72
2023-05-15T07:33:43.613Z,40.63
2023-05-15T07:36:11.343Z,37.88
2023-05-15T07:38:39.130Z,37.95
2023-05-15T07:41:08.847Z,37.43
2023-05-15T07:43:36.762Z,37.42
2023-05-15T07:46:04.617Z,41.22
2023-05-15T07:48:32.477Z,42.10
2023-05-15T07:51:00.213Z,37.35
2023-05-15T07:53:28.110Z,38.57
2023-05-15T07:55:55.845Z,39.33
2023-05-15T07:58:24.924Z,40.63
2023-05-15T08:00:52.934Z,40.50
2023-05-15T08:03:20.844Z,39.90
2023-05-15T08:05:48.687Z,37.87
2023-05-15T08:08:16.443Z,42.58
2023-05-15T08:10:44.155Z,47.25
2023-05-15T08:13:11.886Z,41.92
2023-05-15T08:15:40.996Z,45.25
2023-05-15T08:18:10.120Z,41.17
2023-05-15T08:20:38.622Z,37.85
2023-05-15T08:23:06.601Z,40.17
2023-05-15T08:25:34.963Z,40.90
2023-05-15T08:28:03.322Z,36.63
2023-05-15T08:30:31.217Z,34.90
2023-05-15T08:33:00.448Z,33.90
2023-05-15T08:35:28.239Z,35.53
2023-05-15T08:37:56.045Z,33.10
2023-05-15T08:40:38.504Z,31.05
2023-05-15T08:43:15.118Z,34.30
2023-05-15T08:45:43.914Z,33.42
2023-05-15T08:48:17.244Z,33.13
2023-05-15T08:50:45.887Z,32.25
2023-05-15T08:53:14.504Z,32.28
2023-05-15T08:55:43.262Z,31.20
2023-05-15T08:58:11.221Z,28.95
2023-05-15T09:00:39.486Z,28.67
2023-05-15T09:03:07.925Z,29.63
2023-05-15T09:05:38.820Z,28.00
2023-05-15T09:08:09.251Z,31.90
2023-05-15T09:10:37.376Z,31.83
2023-05-15T09:13:07.578Z,32.25
2023-05-15T09:15:37.261Z,28.58
2023-05-15T09:18:07.823Z,26.45
2023-05-15T09:20:38.534Z,23.67
2023-05-15T09:23:22.536Z,23.27
2023-05-15T09:25:53.780Z,25.17
2023-05-15T09:28:27.959Z,22.60
2023-05-15T09:31:01.150Z,24.67
2023-05-15T09:33:30.612Z,27.77
2023-05-15T09:36:00.050Z,23.63
2023-05-15T09:38:27.803Z,22.73
2023-05-15T09:41:06.258Z,25.00
2023-05-15T09:43:38.968Z,24.30
2023-05-15T09:46:08.279Z,25.33
2023-05-15T09:48:37.015Z,23.55
2023-05-15T09:51:07.760Z,22.52
2023-05-15T09:53:38.460Z,18.20
2023-05-15T09:56:06.491Z,19.25
2023-05-15T09:58:36.141Z,20.07
2023-05-15T10:01:04.284Z,21.63
2023-05-15T10:03:32.164Z,24.38
2023-05-15T10:06:01.862Z,21.80
2023-05-15T10:08:31.041Z,19.77
2023-05-15T10:11:01.629Z,23.43
2023-05-15T10:13:32.973Z,21.98
2023-05-15T10:16:03.651Z,21.25
2023-05-15T10:18:34.205Z,23.60
2023-05-15T10:21:04.196Z,20.88
2023-05-15T10:23:37.550Z,23.97
2023-05-15T10:26:11.112Z,21.70
2023-05-15T10:28:39.981Z,24.92
2023-05-15T10:31:08.372Z,23.13
2023-05-15T10:33:37.016Z,26.48
2023-05-15T10:36:05.698Z,23.60
2023-05-15T10:38:36.891Z,23.25
2023-05-15T10:41:16.459Z,22.02
2023-05-15T10:43:46.805Z,23.88
2023-05-15T10:46:16.077Z,21.27
2023-05-15T10:48:44.668Z,19.40
2023-05-15T10:51:17.584Z,20.02
2023-05-15T10:53:47.420Z,23.15
2023-05-15T10:56:17.217Z,19.08
2023-05-15T10:58:49.250Z,21.65
2023-05-15T11:01:35.749Z,20.80
2023-05-15T11:04:11.605Z,18.27
2023-05-15T11:06:41.467Z,19.20
2023-05-15T11:09:39.059Z,17.45
2023-05-15T11:12:09.168Z,16.33
2023-05-15T11:14:38.796Z,18.83
2023-05-15T11:17:08.779Z,19.92
2023-05-15T11:19:57.618Z,17.08
2023-05-15T11:22:33.425Z,14.63
2023-05-15T11:25:05.010Z,18.70
2023-05-15T11:27:34.586Z,15.60
2023-05-15T11:30:14.202Z,18.88
2023-05-15T11:32:43.960Z,17.13
2023-05-15T11:35:12.514Z,18.05
2023-05-15T11:37:44.017Z,16.95
2023-05-15T11:40:19.696Z,16.10
2023-05-15T11:43:00.721Z,19.02
2023-05-15T11:45:30.684Z,16.77
2023-05-15T11:48:00.388Z,23.30
2023-05-15T11:50:28.814Z,19.40
2023-05-15T11:52:57.285Z,15.80
2023-05-15T11:55:26.912Z,18.15
2023-05-15T11:57:54.639Z,15.93
2023-05-15T12:00:23.295Z,17.73
2023-05-15T12:02:51.195Z,17.00
2023-05-15T12:05:18.988Z,21.47
2023-05-15T12:07:46.901Z,20.75
2023-05-15T12:10:15.305Z,21.80
2023-05-15T12:12:46.007Z,19.77
2023-05-15T12:15:15.192Z,24.13
2023-05-15T12:17:43.725Z,25.47
2023-05-15T12:20:13.574Z,26.02
2023-05-15T12:22:42.566Z,23.73
2023-05-15T12:25:11.517Z,24.33
2023-05-15T12:27:40.787Z,22.15
2023-05-15T12:30:11.998Z,21.07
2023-05-15T12:32:40.377Z,19.13
2023-05-15T12:35:09.378Z,14.98
2023-05-15T12:37:37.509Z,15.07
2023-05-15T12:40:10.239Z,13.73
2023-05-15T12:42:42.608Z,12.63
2023-05-15T12:45:16.366Z,10.88
2023-05-15T12:47:45.740Z,11.13
2023-05-15T12:50:17.679Z,8.93
2023-05-15T12:52:52.094Z,13.35
2023-05-15T12:55:23.771Z,14.40
2023-05-15T12:57:52.253Z,11.45
2023-05-15T13:00:22.872Z,13.88
2023-05-15T13:02:55.002Z,10.75
2023-05-15T13:05:24.351Z,11.75
2023-05-15T13:07:52.466Z,11.70
2023-05-15T13:10:22.801Z,10.63
2023-05-15T13:12:51.850Z,10.75
2023-05-15T13:15:29.159Z,10.85
2023-05-15T13:18:00.953Z,11.68
2023-05-15T13:20:30.033Z,11.70
2023-05-15T13:22:57.871Z,10.52
2023-05-15T13:25:25.724Z,10.80
2023-05-15T13:27:53.655Z,12.82
2023-05-15T13:30:21.584Z,10.77
2023-05-15T13:32:51.964Z,9.63
2023-05-15T13:35:21.136Z,6.80
2023-05-15T13:37:49.398Z,8.93
2023-05-15T13:40:17.471Z,7.60
2023-05-15T13:42:45.896Z,6.32
2023-05-15T13:45:16.005Z,8.57
2023-05-15T13:47:45.062Z,7.80
2023-05-15T13:50:15.648Z,8.00
2023-05-15T13:52:44.580Z,10.75
2023-05-15T13:55:12.765Z,8.82
2023-05-15T13:57:41.533Z,10.37
2023-05-15T14:00:12.594Z,7.97
2023-05-15T14:02:40.763Z,9.40
2023-05-15T14:05:09.370Z,6.50
2023-05-15T14:07:38.689Z,10.02
2023-05-15T14:10:07.754Z,8.50
2023-05-15T14:12:35.656Z,7.00
2023-05-15T14:15:03.495Z,7.97
2023-05-15T14:17:31.358Z,8.60
2023-05-15T14:19:59.234Z,8.10
2023-05-15T14:22:27.001Z,7.93
2023-05-15T14:24:56.154Z,5.90
2023-05-15T14:27:23.954Z,7.22
2023-05-15T14:29:51.917Z,10.38
2023-05-15T14:32:19.993Z,9.38
2023-05-15T14:34:47.831Z,6.43
2023-05-15T14:37:15.751Z,8.63
2023-05-15T14:39:43.573Z,9.57
2023-05-15T14:42:12.677Z,8.60
2023-05-15T14:44:40.733Z,10.50
2023-05-15T14:47:09.902Z,10.60
2023-05-15T14:49:38.155Z,8.77
2023-05-15T14:52:07.918Z,6.70
2023-05-15T14:54:36.461Z,12.68
2023-05-15T14:57:04.770Z,8.07
2023-05-15T14:59:33.990Z,7.77
2023-05-15T15:02:02.130Z,6.75
2023-05-15T15:04:34.273Z,8.57
2023-05-15T15:07:05.002Z,10.10
2023-05-15T15:09:32.865Z,7.80
2023-05-15T15:12:00.837Z,8.50
2023-05-15T15:14:28.648Z,11.73
2023-05-15T15:16:57.749Z,10.40
2023-05-15T15:19:25.457Z,8.15
2023-05-15T15:21:53.179Z,10.07
2023-05-15T15:24:20.895Z,9.10
2023-05-15T15:26:48.656Z,10.57
2023-05-15T15:29:16.485Z,8.93
2023-05-15T15:31:44.618Z,11.88
2023-05-15T15:34:13.769Z,13.80
2023-05-15T15:36:43.420Z,8.90
2023-05-15T15:39:12.849Z,12.98
2023-05-15T15:41:40.829Z,13.60
2023-05-15T15:44:08.568Z,14.45
2023-05-15T15:46:36.364Z,16.27
2023-05-15T15:49:05.984Z,13.40
2023-05-15T15:51:35.916Z,13.13
2023-05-15T15:54:03.714Z,16.38
2023-05-15T15:56:31.359Z,14.20
2023-05-15T15:58:59.383Z,18.08
2023-05-15T16:01:27.177Z,11.20
2023-05-15T16:03:54.953Z,12.27
2023-05-15T16:06:22.906Z,21.25
2023-05-15T16:08:52.069Z,13.27
2023-05-15T16:11:20.024Z,12.32
2023-05-15T16:13:47.794Z,15.57
2023-05-15T16:16:15.752Z,12.05
2023-05-15T16:18:43.531Z,13.93
2023-05-15T16:21:12.019Z,14.73
2023-05-15T16:23:41.323Z,12.40
2023-05-15T16:26:11.239Z,16.57
2023-05-15T16:28:39.680Z,14.98
2023-05-15T16:31:08.046Z,17.10
2023-05-15T16:33:35.995Z,14.38
2023-05-15T16:36:05.091Z,13.07
2023-05-15T16:38:32.906Z,16.57
2023-05-15T16:41:00.636Z,18.40
2023-05-15T16:43:29.830Z,13.30
2023-05-15T16:45:57.592Z,17.23
2023-05-15T16:48:26.244Z,14.52
2023-05-15T16:50:54.478Z,11.03
2023-05-15T16:53:22.428Z,14.15
2023-05-15T16:55:50.731Z,15.68
2023-05-15T16:58:18.524Z,11.38
2023-05-15T17:00:47.659Z,11.80
2023-05-15T17:03:15.581Z,7.83
2023-05-15T17:05:43.948Z,11.98
2023-05-15T17:08:11.795Z,9.23
2023-05-15T17:10:39.980Z,10.18
2023-05-15T17:13:07.794Z,7.63
2023-05-15T17:15:35.601Z,6.20
2023-05-15T17:18:05.128Z,7.93
2023-05-15T17:20:33.089Z,7.80
2023-05-15T17:23:00.907Z,9.23
2023-05-15T17:25:29.000Z,10.27
2023-05-15T17:27:56.846Z,10.13
2023-05-15T17:30:24.780Z,5.28
2023-05-15T17:32:52.813Z,7.07
2023-05-15T17:35:22.842Z,11.75
2023-05-15T17:37:51.659Z,5.05
2023-05-15T17:40:19.422Z,7.57
2023-05-15T17:42:47.128Z,21.58
2023-05-15T17:45:14.960Z,9.90
2023-05-15T17:47:42.832Z,11.90
2023-05-15T17:50:11.345Z,8.25
2023-05-15T17:52:40.475Z,10.87
2023-05-15T17:55:09.084Z,10.57
2023-05-15T17:57:36.824Z,10.57
2023-05-15T18:00:07.194Z,8.68
2023-05-15T18:02:40.002Z,10.13
2023-05-15T18:05:09.024Z,9.27
2023-05-15T18:07:36.877Z,10.70
2023-05-15T18:10:07.807Z,9.77
2023-05-15T18:12:35.707Z,8.18
2023-05-15T18:15:03.715Z,7.75
2023-05-15T18:17:31.754Z,8.73
2023-05-15T18:19:59.552Z,5.10
2023-05-15T18:22:27.321Z,10.07
2023-05-15T18:24:55.130Z,7.53
2023-05-15T18:27:24.289Z,11.38
2023-05-15T18:29:52.053Z,9.67
2023-05-15T18:32:20.323Z,7.68
2023-05-15T18:34:48.065Z,12.20
2023-05-15T18:37:15.920Z,17.35
2023-05-15T18:39:44.142Z,13.13
2023-05-15T18:42:11.892Z,12.67
2023-05-15T18:44:41.227Z,9.30
2023-05-15T18:47:09.063Z,16.00
2023-05-15T18:49:36.883Z,15.35
2023-05-15T18:52:05.077Z,16.10
2023-05-15T18:54:32.932Z,9.57
2023-05-15T18:57:00.625Z,17.90
2023-05-15T18:59:29.296Z,12.20
2023-05-15T19:01:58.535Z,10.48
2023-05-15T19:04:26.393Z,13.63
2023-05-15T19:06:54.256Z,15.10
2023-05-15T19:09:22.052Z,20.80
2023-05-15T19:11:52.313Z,14.00
2023-05-15T19:14:20.200Z,13.05
2023-05-15T19:16:48.014Z,13.18
2023-05-15T19:19:17.234Z,15.77
2023-05-15T19:21:47.323Z,11.55
2023-05-15T19:24:15.069Z,19.25
2023-05-15T19:26:42.868Z,12.85
2023-05-15T19:29:10.602Z,10.35
2023-05-15T19:31:38.745Z,12.93
2023-05-15T19:34:06.677Z,12.68
2023-05-15T19:36:35.848Z,16.48
2023-05-15T19:39:03.748Z,18.45
2023-05-15T19:41:31.438Z,17.10
2023-05-15T19:43:59.262Z,13.40
2023-05-15T19:46:27.073Z,13.05
2023-05-15T19:48:54.829Z,15.10
2023-05-15T19:51:22.573Z,14.52
2023-05-15T19:53:51.721Z,16.35
2023-05-15T19:56:21.725Z,11.07
2023-05-15T19:58:49.496Z,15.00
2023-05-15T20:01:17.251Z,11.30
2023-05-15T20:03:45.146Z,10.48
2023-05-15T20:06:13.062Z,14.52
2023-05-15T20:08:40.757Z,13.97
2023-05-15T20:11:09.807Z,13.32
2023-05-15T20:13:37.591Z,13.10
2023-05-15T20:16:09.122Z,14.75
2023-05-15T20:18:39.421Z,14.07
2023-05-15T20:21:07.490Z,13.87
2023-05-15T20:23:35.362Z,16.25
2023-05-15T20:26:04.249Z,16.27
2023-05-15T20:28:33.418Z,16.98
2023-05-15T20:31:01.726Z,13.40
2023-05-15T20:33:30.293Z,14.60
2023-05-15T20:35:58.259Z,16.55
2023-05-15T20:38:26.265Z,12.88
2023-05-15T20:40:53.978Z,14.60
2023-05-15T20:43:21.785Z,19.55
2023-05-15T20:45:50.880Z,14.87
2023-05-15T20:48:18.637Z,21.55
2023-05-15T20:50:46.397Z,14.90
2023-05-15T20:53:15.235Z,13.63
2023-05-15T20:55:43.091Z,15.55
2023-05-15T20:58:10.900Z,10.73
2023-05-15T21:00:38.981Z,17.00
2023-05-15T21:03:09.370Z,15.07
2023-05-15T21:05:37.562Z,16.00
2023-05-15T21:08:05.772Z,11.90
2023-05-15T21:10:33.673Z,14.50
2023-05-15T21:13:01.514Z,14.90
2023-05-15T21:15:29.173Z,13.52
2023-05-15T21:17:56.831Z,14.90
2023-05-15T21:20:26.824Z,15.50
2023-05-15T21:22:54.954Z,12.33
2023-05-15T21:25:22.724Z,11.07
2023-05-15T21:27:50.531Z,13.50
2023-05-15T21:30:18.406Z,12.93
2023-05-15T21:32:46.255Z,12.38
2023-05-15T21:35:13.995Z,11.03
2023-05-15T21:37:44.269Z,10.88
2023-05-15T21:40:13.409Z,15.18
2023-05-15T21:42:42.005Z,13.07
2023-05-15T21:45:10.872Z,12.25
2023-05-15T21:47:39.241Z,9.87
2023-05-15T21:50:07.925Z,13.82
2023-05-15T21:52:35.820Z,14.77
2023-05-15T21:55:05.752Z,16.20
2023-05-15T21:57:33.728Z,19.00
2023-05-15T22:00:01.521Z,13.90
2023-05-15T22:02:29.609Z,10.73
2023-05-15T22:04:57.418Z,9.35
2023-05-15T22:07:34.149Z,8.40
2023-05-15T22:10:03.096Z,9.63
2023-05-15T22:12:33.142Z,14.13
2023-05-15T22:15:01.331Z,13.32
2023-05-15T22:17:30.786Z,11.38
2023-05-15T22:20:07.469Z,13.15
2023-05-15T22:22:37.024Z,11.18
2023-05-15T22:25:05.272Z,15.77
2023-05-15T22:27:34.736Z,15.18
2023-05-15T22:30:02.580Z,14.40
2023-05-15T22:32:30.358Z,14.80
2023-05-15T22:34:58.110Z,15.25
2023-05-15T22:37:25.911Z,14.00
2023-05-15T22:39:53.848Z,13.20
2023-05-15T22:42:21.624Z,12.32
2023-05-15T22:44:50.743Z,16.08
2023-05-15T22:47:18.426Z,8.00
2023-05-15T22:49:46.191Z,14.33
2023-05-15T22:52:14.240Z,11.77
2023-05-15T22:54:45.031Z,15.73
2023-05-15T22:57:12.903Z,15.85
2023-05-15T22:59:41.219Z,9.85
2023-05-15T23:02:10.473Z,9.33
2023-05-15T23:04:38.221Z,14.07
2023-05-15T23:07:06.247Z,7.25
2023-05-15T23:09:33.999Z,17.15
2023-05-15T23:12:02.196Z,11.95
2023-05-15T23:14:31.085Z,10.43
2023-05-15T23:16:58.925Z,14.77
2023-05-15T23:19:28.071Z,6.93
2023-05-15T23:21:55.892Z,9.98
2023-05-15T23:24:23.623Z,15.43
2023-05-15T23:26:51.368Z,11.37
2023-05-15T23:29:19.066Z,12.20
2023-05-15T23:31:47.220Z,11.07
2023-05-15T23:34:15.160Z,8.60
2023-05-15T23:36:44.298Z,8.60
2023-05-15T23:39:12.681Z,10.60
2023-05-15T23:41:40.713Z,11.38
2023-05-15T23:44:08.648Z,10.20
2023-05-15T23:46:38.029Z,9.95
2023-05-15T23:49:05.784Z,6.50
2023-05-15T23:51:33.657Z,9.67
2023-05-15T23:54:02.763Z,12.68
2023-05-15T23:56:30.516Z,12.68
2023-05-15T23:58:58.260Z,7.95
